sensor_id;sensor_type;location;lat;lon;timestamp;P1;durP1;ratioP1;P2;durP2;ratioP2
5491;SDS011;2768;53.540;10.224;2022-10-24T00:04:06;3.97;;;3.07;;
5491;SDS011;2768;53.540;10.224;2022-10-24T00:09:59;2.37;;;2.17;;
5491;SDS011;2768;53.540;10.224;2022-10-24T00:15:54;4.07;;;2.40;;
5491;SDS011;2768;53.540;10.224;2022-10-24T00:21:47;6.63;;;2.30;;
5491;SDS011;2768;53.540;10.224;2022-10-24T00:27:41;2.30;;;2.10;;
5491;SDS011;2768;53.540;10.224;2022-10-24T00:33:35;2.37;;;2.17;;
5491;SDS011;2768;53.540;10.224;2022-10-24T00:39:29;4.30;;;2.50;;
5491;SDS011;2768;53.540;10.224;2022-10-24T00:45:36;3.20;;;2.03;;
5491;SDS011;2768;53.540;10.224;2022-10-24T00:51:33;3.30;;;1.97;;
5491;SDS011;2768;53.540;10.224;2022-10-24T00:57:28;2.30;;;1.90;;
5491;SDS011;2768;53.540;10.224;2022-10-24T01:03:25;4.30;;;2.40;;
5491;SDS011;2768;53.540;10.224;2022-10-24T01:09:36;1.80;;;1.70;;
5491;SDS011;2768;53.540;10.224;2022-10-24T01:15:40;2.23;;;2.03;;
5491;SDS011;2768;53.540;10.224;2022-10-24T01:21:38;3.10;;;2.07;;
5491;SDS011;2768;53.540;10.224;2022-10-24T01:27:42;2.10;;;1.80;;
5491;SDS011;2768;53.540;10.224;2022-10-24T01:33:51;1.50;;;1.40;;
5491;SDS011;2768;53.540;10.224;2022-10-24T01:39:47;3.97;;;2.47;;
5491;SDS011;2768;53.540;10.224;2022-10-24T01:45:45;5.23;;;2.20;;
5491;SDS011;2768;53.540;10.224;2022-10-24T01:51:47;3.00;;;1.70;;
5491;SDS011;2768;53.540;10.224;2022-10-24T01:57:44;5.87;;;2.17;;
5491;SDS011;2768;53.540;10.224;2022-10-24T02:03:39;3.00;;;2.10;;
5491;SDS011;2768;53.540;10.224;2022-10-24T02:09:37;6.73;;;2.00;;
5491;SDS011;2768;53.540;10.224;2022-10-24T02:15:34;4.33;;;2.43;;
5491;SDS011;2768;53.540;10.224;2022-10-24T02:21:33;3.17;;;1.97;;
5491;SDS011;2768;53.540;10.224;2022-10-24T02:27:31;2.13;;;1.90;;
5491;SDS011;2768;53.540;10.224;2022-10-24T02:33:29;1.97;;;1.70;;
5491;SDS011;2768;53.540;10.224;2022-10-24T02:39:24;3.80;;;1.90;;
5491;SDS011;2768;53.540;10.224;2022-10-24T02:45:20;3.23;;;1.90;;
5491;SDS011;2768;53.540;10.224;2022-10-24T02:51:14;1.90;;;1.70;;
5491;SDS011;2768;53.540;10.224;2022-10-24T02:57:12;5.20;;;1.90;;
5491;SDS011;2768;53.540;10.224;2022-10-24T03:03:07;1.50;;;1.40;;
5491;SDS011;2768;53.540;10.224;2022-10-24T03:09:00;1.60;;;1.50;;
5491;SDS011;2768;53.540;10.224;2022-10-24T03:14:54;3.77;;;1.90;;
5491;SDS011;2768;53.540;10.224;2022-10-24T03:20:48;2.00;;;1.87;;
5491;SDS011;2768;53.540;10.224;2022-10-24T03:26:41;4.80;;;2.40;;
5491;SDS011;2768;53.540;10.224;2022-10-24T03:32:35;3.87;;;2.33;;
5491;SDS011;2768;53.540;10.224;2022-10-24T03:38:30;2.03;;;1.50;;
5491;SDS011;2768;53.540;10.224;2022-10-24T03:44:23;1.87;;;1.77;;
5491;SDS011;2768;53.540;10.224;2022-10-24T03:50:16;2.80;;;1.60;;
5491;SDS011;2768;53.540;10.224;2022-10-24T03:56:11;5.97;;;2.20;;
5491;SDS011;2768;53.540;10.224;2022-10-24T04:02:04;3.80;;;2.50;;
5491;SDS011;2768;53.540;10.224;2022-10-24T04:07:58;5.50;;;1.80;;
5491;SDS011;2768;53.540;10.224;2022-10-24T04:13:52;4.37;;;2.00;;
5491;SDS011;2768;53.540;10.224;2022-10-24T04:19:46;3.10;;;1.83;;
5491;SDS011;2768;53.540;10.224;2022-10-24T04:25:39;2.20;;;2.00;;
5491;SDS011;2768;53.540;10.224;2022-10-24T04:31:34;4.10;;;2.30;;
5491;SDS011;2768;53.540;10.224;2022-10-24T04:37:28;2.37;;;1.63;;
5491;SDS011;2768;53.540;10.224;2022-10-24T04:43:22;4.10;;;2.17;;
5491;SDS011;2768;53.540;10.224;2022-10-24T04:49:17;6.70;;;2.10;;
5491;SDS011;2768;53.540;10.224;2022-10-24T04:55:11;3.57;;;2.30;;
5491;SDS011;2768;53.540;10.224;2022-10-24T05:01:04;2.83;;;2.03;;
5491;SDS011;2768;53.540;10.224;2022-10-24T05:07:00;3.47;;;2.17;;
5491;SDS011;2768;53.540;10.224;2022-10-24T05:12:53;5.47;;;2.30;;
5491;SDS011;2768;53.540;10.224;2022-10-24T05:18:47;5.23;;;2.50;;
5491;SDS011;2768;53.540;10.224;2022-10-24T05:24:41;3.77;;;2.80;;
5491;SDS011;2768;53.540;10.224;2022-10-24T05:30:35;6.03;;;2.30;;
5491;SDS011;2768;53.540;10.224;2022-10-24T05:36:28;4.30;;;2.80;;
5491;SDS011;2768;53.540;10.224;2022-10-24T05:42:23;3.90;;;2.30;;
5491;SDS011;2768;53.540;10.224;2022-10-24T05:48:16;6.13;;;2.50;;
5491;SDS011;2768;53.540;10.224;2022-10-24T05:54:10;3.93;;;2.67;;
5491;SDS011;2768;53.540;10.224;2022-10-24T06:00:06;6.17;;;2.73;;
5491;SDS011;2768;53.540;10.224;2022-10-24T06:06:04;6.60;;;3.00;;
5491;SDS011;2768;53.540;10.224;2022-10-24T06:11:58;2.63;;;2.43;;
5491;SDS011;2768;53.540;10.224;2022-10-24T06:17:53;4.93;;;2.20;;
5491;SDS011;2768;53.540;10.224;2022-10-24T06:23:46;8.07;;;2.50;;
5491;SDS011;2768;53.540;10.224;2022-10-24T06:29:40;6.63;;;2.57;;
5491;SDS011;2768;53.540;10.224;2022-10-24T06:35:34;4.90;;;2.83;;
5491;SDS011;2768;53.540;10.224;2022-10-24T06:41:28;4.13;;;2.83;;
5491;SDS011;2768;53.540;10.224;2022-10-24T06:47:22;3.87;;;2.33;;
5491;SDS011;2768;53.540;10.224;2022-10-24T06:53:17;4.57;;;2.33;;
5491;SDS011;2768;53.540;10.224;2022-10-24T06:59:16;7.10;;;2.87;;
5491;SDS011;2768;53.540;10.224;2022-10-24T07:05:10;5.20;;;2.47;;
5491;SDS011;2768;53.540;10.224;2022-10-24T07:11:06;2.70;;;2.30;;
5491;SDS011;2768;53.540;10.224;2022-10-24T07:17:00;6.27;;;3.00;;
5491;SDS011;2768;53.540;10.224;2022-10-24T07:22:53;4.83;;;2.87;;
5491;SDS011;2768;53.540;10.224;2022-10-24T07:28:48;5.17;;;3.00;;
5491;SDS011;2768;53.540;10.224;2022-10-24T07:34:44;8.40;;;2.87;;
5491;SDS011;2768;53.540;10.224;2022-10-24T07:40:38;5.53;;;2.73;;
5491;SDS011;2768;53.540;10.224;2022-10-24T07:46:33;7.50;;;3.17;;
5491;SDS011;2768;53.540;10.224;2022-10-24T07:52:27;3.73;;;2.53;;
5491;SDS011;2768;53.540;10.224;2022-10-24T07:58:20;5.80;;;3.10;;
5491;SDS011;2768;53.540;10.224;2022-10-24T08:04:15;5.60;;;3.00;;
5491;SDS011;2768;53.540;10.224;2022-10-24T08:10:10;9.37;;;2.80;;
5491;SDS011;2768;53.540;10.224;2022-10-24T08:16:05;7.00;;;2.83;;
5491;SDS011;2768;53.540;10.224;2022-10-24T08:22:01;9.13;;;3.03;;
5491;SDS011;2768;53.540;10.224;2022-10-24T08:27:55;4.10;;;2.43;;
5491;SDS011;2768;53.540;10.224;2022-10-24T08:33:50;5.73;;;3.00;;
5491;SDS011;2768;53.540;10.224;2022-10-24T08:39:45;6.27;;;2.80;;
5491;SDS011;2768;53.540;10.224;2022-10-24T08:45:41;4.87;;;2.57;;
5491;SDS011;2768;53.540;10.224;2022-10-24T08:51:45;8.30;;;2.70;;
5491;SDS011;2768;53.540;10.224;2022-10-24T08:57:43;4.30;;;2.50;;
5491;SDS011;2768;53.540;10.224;2022-10-24T09:03:41;4.70;;;2.13;;
5491;SDS011;2768;53.540;10.224;2022-10-24T09:09:56;7.70;;;2.70;;
5491;SDS011;2768;53.540;10.224;2022-10-24T09:15:58;7.00;;;2.73;;
5491;SDS011;2768;53.540;10.224;2022-10-24T09:21:51;7.40;;;2.40;;
5491;SDS011;2768;53.540;10.224;2022-10-24T09:27:45;4.03;;;2.77;;
5491;SDS011;2768;53.540;10.224;2022-10-24T09:33:40;3.50;;;2.43;;
5491;SDS011;2768;53.540;10.224;2022-10-24T09:39:36;9.53;;;2.77;;
5491;SDS011;2768;53.540;10.224;2022-10-24T09:45:37;3.67;;;2.10;;
5491;SDS011;2768;53.540;10.224;2022-10-24T09:51:33;5.40;;;3.03;;
5491;SDS011;2768;53.540;10.224;2022-10-24T09:57:32;4.60;;;2.63;;
5491;SDS011;2768;53.540;10.224;2022-10-24T10:03:31;5.83;;;2.30;;
5491;SDS011;2768;53.540;10.224;2022-10-24T10:09:27;8.73;;;2.57;;
5491;SDS011;2768;53.540;10.224;2022-10-24T10:15:23;4.33;;;2.00;;
5491;SDS011;2768;53.540;10.224;2022-10-24T10:21:23;5.27;;;2.10;;
5491;SDS011;2768;53.540;10.224;2022-10-24T10:27:24;5.53;;;2.00;;
5491;SDS011;2768;53.540;10.224;2022-10-24T10:33:22;5.70;;;2.33;;
5491;SDS011;2768;53.540;10.224;2022-10-24T10:39:24;6.53;;;1.93;;
5491;SDS011;2768;53.540;10.224;2022-10-24T10:45:38;3.33;;;1.70;;
5491;SDS011;2768;53.540;10.224;2022-10-24T10:51:34;5.07;;;1.50;;
5491;SDS011;2768;53.540;10.224;2022-10-24T10:57:36;3.93;;;1.50;;
5491;SDS011;2768;53.540;10.224;2022-10-24T11:03:38;4.37;;;1.67;;
5491;SDS011;2768;53.540;10.224;2022-10-24T11:09:37;3.73;;;1.70;;
5491;SDS011;2768;53.540;10.224;2022-10-24T11:15:35;3.77;;;1.47;;
5491;SDS011;2768;53.540;10.224;2022-10-24T11:21:33;4.63;;;1.47;;
5491;SDS011;2768;53.540;10.224;2022-10-24T11:27:33;3.83;;;1.60;;
5491;SDS011;2768;53.540;10.224;2022-10-24T11:33:34;3.70;;;1.17;;
5491;SDS011;2768;53.540;10.224;2022-10-24T11:39:33;6.00;;;1.73;;
5491;SDS011;2768;53.540;10.224;2022-10-24T11:45:34;4.20;;;1.03;;
5491;SDS011;2768;53.540;10.224;2022-10-24T11:51:36;4.80;;;1.30;;
5491;SDS011;2768;53.540;10.224;2022-10-24T11:57:35;8.97;;;1.70;;
5491;SDS011;2768;53.540;10.224;2022-10-24T12:10:25;1.87;;;1.13;;
5491;SDS011;2768;53.540;10.224;2022-10-24T12:16:33;2.83;;;1.50;;
5491;SDS011;2768;53.540;10.224;2022-10-24T12:22:38;4.03;;;1.40;;
5491;SDS011;2768;53.540;10.224;2022-10-24T12:28:34;2.00;;;1.00;;
5491;SDS011;2768;53.540;10.224;2022-10-24T12:34:43;5.03;;;1.43;;
5491;SDS011;2768;53.540;10.224;2022-10-24T12:41:34;1.37;;;0.90;;
5491;SDS011;2768;53.540;10.224;2022-10-24T12:47:30;2.40;;;1.07;;
5491;SDS011;2768;53.540;10.224;2022-10-24T12:53:31;2.57;;;1.40;;
5491;SDS011;2768;53.540;10.224;2022-10-24T12:59:27;3.80;;;1.10;;
5491;SDS011;2768;53.540;10.224;2022-10-24T13:11:52;2.70;;;1.27;;
5491;SDS011;2768;53.540;10.224;2022-10-24T13:17:57;8.57;;;2.77;;
5491;SDS011;2768;53.540;10.224;2022-10-24T13:24:08;5.60;;;2.00;;
5491;SDS011;2768;53.540;10.224;2022-10-24T13:30:24;1.73;;;0.90;;
5491;SDS011;2768;53.540;10.224;2022-10-24T13:36:19;3.30;;;1.63;;
5491;SDS011;2768;53.540;10.224;2022-10-24T13:42:23;5.13;;;1.13;;
5491;SDS011;2768;53.540;10.224;2022-10-24T13:48:21;3.80;;;1.50;;
5491;SDS011;2768;53.540;10.224;2022-10-24T13:54:15;5.33;;;1.40;;
5491;SDS011;2768;53.540;10.224;2022-10-24T14:00:16;2.83;;;1.10;;
5491;SDS011;2768;53.540;10.224;2022-10-24T14:06:13;4.30;;;1.10;;
5491;SDS011;2768;53.540;10.224;2022-10-24T14:12:07;5.03;;;1.73;;
5491;SDS011;2768;53.540;10.224;2022-10-24T14:18:11;6.20;;;1.63;;
5491;SDS011;2768;53.540;10.224;2022-10-24T14:24:07;4.70;;;1.27;;
5491;SDS011;2768;53.540;10.224;2022-10-24T14:30:05;2.07;;;0.90;;
5491;SDS011;2768;53.540;10.224;2022-10-24T14:36:09;6.60;;;1.50;;
5491;SDS011;2768;53.540;10.224;2022-10-24T14:42:06;2.27;;;1.20;;
5491;SDS011;2768;53.540;10.224;2022-10-24T14:48:13;4.73;;;1.23;;
5491;SDS011;2768;53.540;10.224;2022-10-24T14:54:15;3.60;;;1.47;;
5491;SDS011;2768;53.540;10.224;2022-10-24T15:00:19;4.40;;;1.10;;
5491;SDS011;2768;53.540;10.224;2022-10-24T15:06:15;4.00;;;1.47;;
5491;SDS011;2768;53.540;10.224;2022-10-24T15:12:14;6.90;;;1.60;;
5491;SDS011;2768;53.540;10.224;2022-10-24T15:18:15;5.53;;;1.33;;
5491;SDS011;2768;53.540;10.224;2022-10-24T15:24:17;3.47;;;1.33;;
5491;SDS011;2768;53.540;10.224;2022-10-24T15:30:13;4.70;;;1.00;;
5491;SDS011;2768;53.540;10.224;2022-10-24T15:36:13;6.33;;;1.63;;
5491;SDS011;2768;53.540;10.224;2022-10-24T15:42:11;3.10;;;1.30;;
5491;SDS011;2768;53.540;10.224;2022-10-24T15:48:08;4.80;;;1.40;;
5491;SDS011;2768;53.540;10.224;2022-10-24T15:54:02;3.23;;;1.20;;
5491;SDS011;2768;53.540;10.224;2022-10-24T15:59:56;5.57;;;1.30;;
5491;SDS011;2768;53.540;10.224;2022-10-24T16:05:51;4.40;;;1.63;;
5491;SDS011;2768;53.540;10.224;2022-10-24T16:11:47;3.73;;;1.10;;
5491;SDS011;2768;53.540;10.224;2022-10-24T16:17:41;4.07;;;1.63;;
5491;SDS011;2768;53.540;10.224;2022-10-24T16:23:34;4.60;;;1.27;;
5491;SDS011;2768;53.540;10.224;2022-10-24T16:29:29;2.87;;;1.47;;
5491;SDS011;2768;53.540;10.224;2022-10-24T16:35:22;3.63;;;1.73;;
5491;SDS011;2768;53.540;10.224;2022-10-24T16:41:17;5.80;;;1.60;;
5491;SDS011;2768;53.540;10.224;2022-10-24T16:47:15;5.90;;;1.93;;
5491;SDS011;2768;53.540;10.224;2022-10-24T16:53:08;4.00;;;1.27;;
5491;SDS011;2768;53.540;10.224;2022-10-24T16:59:02;7.77;;;3.07;;
5491;SDS011;2768;53.540;10.224;2022-10-24T17:04:56;6.33;;;1.90;;
5491;SDS011;2768;53.540;10.224;2022-10-24T17:10:50;6.13;;;1.70;;
5491;SDS011;2768;53.540;10.224;2022-10-24T17:16:45;4.60;;;1.50;;
5491;SDS011;2768;53.540;10.224;2022-10-24T17:22:41;3.20;;;1.17;;
5491;SDS011;2768;53.540;10.224;2022-10-24T17:28:35;2.63;;;1.50;;
5491;SDS011;2768;53.540;10.224;2022-10-24T17:34:29;7.00;;;1.83;;
5491;SDS011;2768;53.540;10.224;2022-10-24T17:40:25;2.93;;;1.40;;
5491;SDS011;2768;53.540;10.224;2022-10-24T17:46:21;3.87;;;1.50;;
5491;SDS011;2768;53.540;10.224;2022-10-24T17:52:15;4.53;;;2.10;;
5491;SDS011;2768;53.540;10.224;2022-10-24T17:58:14;4.30;;;1.90;;
5491;SDS011;2768;53.540;10.224;2022-10-24T18:04:08;4.70;;;1.80;;
5491;SDS011;2768;53.540;10.224;2022-10-24T18:10:01;6.00;;;1.80;;
5491;SDS011;2768;53.540;10.224;2022-10-24T18:15:56;4.70;;;1.63;;
5491;SDS011;2768;53.540;10.224;2022-10-24T18:21:49;2.40;;;1.20;;
5491;SDS011;2768;53.540;10.224;2022-10-24T18:27:43;6.43;;;2.10;;
5491;SDS011;2768;53.540;10.224;2022-10-24T18:33:38;5.73;;;2.23;;
5491;SDS011;2768;53.540;10.224;2022-10-24T18:39:32;3.83;;;1.43;;
5491;SDS011;2768;53.540;10.224;2022-10-24T18:45:25;4.73;;;1.87;;
5491;SDS011;2768;53.540;10.224;2022-10-24T18:51:24;2.03;;;1.00;;
5491;SDS011;2768;53.540;10.224;2022-10-24T18:57:22;3.93;;;1.60;;
5491;SDS011;2768;53.540;10.224;2022-10-24T19:03:18;6.63;;;1.37;;
5491;SDS011;2768;53.540;10.224;2022-10-24T19:09:19;6.20;;;2.30;;
5491;SDS011;2768;53.540;10.224;2022-10-24T19:15:13;5.30;;;1.67;;
5491;SDS011;2768;53.540;10.224;2022-10-24T19:21:08;4.27;;;1.40;;
5491;SDS011;2768;53.540;10.224;2022-10-24T19:27:03;4.50;;;1.37;;
5491;SDS011;2768;53.540;10.224;2022-10-24T19:32:56;5.17;;;1.80;;
5491;SDS011;2768;53.540;10.224;2022-10-24T19:38:52;4.63;;;2.20;;
5491;SDS011;2768;53.540;10.224;2022-10-24T19:44:48;8.07;;;2.30;;
5491;SDS011;2768;53.540;10.224;2022-10-24T19:50:45;4.70;;;2.07;;
5491;SDS011;2768;53.540;10.224;2022-10-24T19:56:38;4.43;;;1.80;;
5491;SDS011;2768;53.540;10.224;2022-10-24T20:02:32;4.70;;;2.00;;
5491;SDS011;2768;53.540;10.224;2022-10-24T20:08:25;6.10;;;2.43;;
5491;SDS011;2768;53.540;10.224;2022-10-24T20:14:19;7.20;;;2.60;;
5491;SDS011;2768;53.540;10.224;2022-10-24T20:20:16;5.80;;;2.13;;
5491;SDS011;2768;53.540;10.224;2022-10-24T20:26:11;3.30;;;1.60;;
5491;SDS011;2768;53.540;10.224;2022-10-24T20:32:06;4.13;;;1.90;;
5491;SDS011;2768;53.540;10.224;2022-10-24T20:38:01;4.83;;;1.97;;
5491;SDS011;2768;53.540;10.224;2022-10-24T20:43:55;8.60;;;2.47;;
5491;SDS011;2768;53.540;10.224;2022-10-24T20:49:48;6.47;;;2.53;;
5491;SDS011;2768;53.540;10.224;2022-10-24T20:55:43;7.80;;;2.53;;
5491;SDS011;2768;53.540;10.224;2022-10-24T21:01:36;7.20;;;2.20;;
5491;SDS011;2768;53.540;10.224;2022-10-24T21:07:30;5.83;;;1.90;;
5491;SDS011;2768;53.540;10.224;2022-10-24T21:13:25;5.53;;;2.10;;
5491;SDS011;2768;53.540;10.224;2022-10-24T21:19:18;6.23;;;2.17;;
5491;SDS011;2768;53.540;10.224;2022-10-24T21:25:11;4.97;;;2.13;;
5491;SDS011;2768;53.540;10.224;2022-10-24T21:31:07;3.70;;;1.47;;
5491;SDS011;2768;53.540;10.224;2022-10-24T21:37:02;5.67;;;2.23;;
5491;SDS011;2768;53.540;10.224;2022-10-24T21:42:58;4.63;;;2.03;;
5491;SDS011;2768;53.540;10.224;2022-10-24T21:48:53;4.53;;;1.73;;
5491;SDS011;2768;53.540;10.224;2022-10-24T21:54:47;11.20;;;3.20;;
5491;SDS011;2768;53.540;10.224;2022-10-24T22:00:40;4.97;;;1.90;;
5491;SDS011;2768;53.540;10.224;2022-10-24T22:06:35;7.40;;;2.20;;
5491;SDS011;2768;53.540;10.224;2022-10-24T22:12:29;4.87;;;1.77;;
5491;SDS011;2768;53.540;10.224;2022-10-24T22:18:23;8.03;;;2.47;;
5491;SDS011;2768;53.540;10.224;2022-10-24T22:24:19;7.63;;;2.03;;
5491;SDS011;2768;53.540;10.224;2022-10-24T22:30:13;8.40;;;1.93;;
5491;SDS011;2768;53.540;10.224;2022-10-24T22:36:09;6.80;;;1.90;;
5491;SDS011;2768;53.540;10.224;2022-10-24T22:42:07;3.90;;;1.50;;
5491;SDS011;2768;53.540;10.224;2022-10-24T22:48:07;6.50;;;2.13;;
5491;SDS011;2768;53.540;10.224;2022-10-24T22:54:06;4.47;;;2.33;;
5491;SDS011;2768;53.540;10.224;2022-10-24T23:00:07;4.93;;;1.77;;
5491;SDS011;2768;53.540;10.224;2022-10-24T23:06:03;5.33;;;1.80;;
5491;SDS011;2768;53.540;10.224;2022-10-24T23:12:04;7.20;;;1.80;;
5491;SDS011;2768;53.540;10.224;2022-10-24T23:18:04;5.17;;;1.63;;
5491;SDS011;2768;53.540;10.224;2022-10-24T23:23:58;4.00;;;1.63;;
5491;SDS011;2768;53.540;10.224;2022-10-24T23:29:51;6.30;;;2.13;;
5491;SDS011;2768;53.540;10.224;2022-10-24T23:35:46;4.93;;;1.90;;
5491;SDS011;2768;53.540;10.224;2022-10-24T23:41:44;6.20;;;1.30;;
5491;SDS011;2768;53.540;10.224;2022-10-24T23:47:50;4.70;;;1.87;;
5491;SDS011;2768;53.540;10.224;2022-10-24T23:53:54;5.80;;;1.63;;
5491;SDS011;2768;53.540;10.224;2022-10-24T23:59:48;4.20;;;1.73;;
